Time;durP1;ratioP1;P1;durP2;ratioP2;P2;SDS_P1;SDS_P2;PMS_P1;PMS_P2;Temp;Humidity;BMP_temperature;BMP_pressure;BME280_temperature;BME280_humidity;BME280_pressure;Samples;Min_cycle;Max_cycle;Signal;HPM_P1;HPM_P2
2023/05/19 06:01:29;;;;;;;;;;;;;;;;;;5438175;23;19983;-90
2023/05/19 06:03:54;;;;;;;;;;;;;;;;;;4910539;29;19930;-87
2023/05/19 06:06:20;;;;;;;;;;;;;;;;;;4910291;29;19998;-90
2023/05/19 06:08:45;;;;;;;;;;;;;;;;;;4908507;29;19991;-89
2023/05/19 06:11:10;;;;;;;;;;;;;;;;;;4900526;29;20311;-86
2023/05/19 06:13:36;;;;;;;;;;;;;;;;;;4900348;29;19934;-89
2023/05/19 06:16:01;;;;;;;;;;;;;;;;;;4898484;29;20423;-89
2023/05/19 06:18:27;;;;;;;;;;;;;;;;;;4898966;29;20402;-88
2023/05/19 06:20:53;;;;;;;;;;;;;;;;;;4899231;29;20023;-89
2023/05/19 06:23:19;;;;;;;;;;;;;;;;;;4897816;29;20017;-89
2023/05/19 06:25:44;;;;;;;;;;;;;;;;;;4883741;29;20111;-88
2023/05/19 06:28:10;;;;;;;;;;;;;;;;;;4885442;29;19924;-89
2023/05/19 06:30:35;;;;;;;;;;;;;;;;;;4888324;29;20007;-89
2023/05/19 06:33:02;;;;;;;;;;;;;;;;;;4901320;29;20401;-87
2023/05/19 06:35:27;;;;;;;;;;;;;;;;;;4890076;29;19946;-88
2023/05/19 06:37:54;;;;;;;;;;;;;;;;;;4889707;29;19927;-87
2023/05/19 06:40:19;;;;;;;;;;;;;;;;;;4889577;29;20428;-87
2023/05/19 06:42:45;;;;;;;;;;;;;;;;;;4889897;29;19923;-88
2023/05/19 06:45:10;;;;;;;;;;;;;;;;;;4888171;29;19927;-86
2023/05/19 06:47:35;;;;;;;;;;;;;;;;;;4889759;29;20808;-88
2023/05/19 06:50:01;;;;;;;;;;;;;;;;;;4885862;29;20835;-89
2023/05/19 06:52:26;;;;;;;;;;;;;;;;;;4890336;29;20415;-89
2023/05/19 06:54:52;;;;;;;;;;;;;;;;;;4883382;29;19959;-88
2023/05/19 06:57:17;;;;;;;;;;;;;;;;;;4886854;29;20006;-88
2023/05/19 06:59:44;;;;;;;;;;;;;;;;;;4890738;29;20341;-88
2023/05/19 07:02:09;;;;;;;;;;;;;;;;;;4891762;29;20018;-87
2023/05/19 07:04:35;;;;;;;;;;;;;;;;;;4891086;29;20492;-89
2023/05/19 07:07:00;;;;;;;;;;;;;;;;;;4889424;29;19923;-89
2023/05/19 07:09:26;;;;;;;;;;;;;;;;;;4890234;29;19998;-88
2023/05/19 07:11:51;;;;;;;;;;;;;;;;;;4890550;29;19982;-88
2023/05/19 07:14:16;;;;;;;;;;;;;;;;;;4890519;29;19931;-88
2023/05/19 07:16:42;;;;;;;;;;;;;;;;;;4890034;29;19934;-88
2023/05/19 07:19:07;;;;;;;;;;;;;;;;;;4890567;29;20005;-88
2023/05/19 07:21:33;;;;;;;;;;;;;;;;;;4890324;29;19928;-88
2023/05/19 07:23:58;;;;;;;;;;;;;;;;;;4890806;29;19974;-86
2023/05/19 07:26:23;;;;;;;;;;;;;;;;;;4889624;29;19927;-88
2023/05/19 07:28:48;;;;;;;;;;;;;;;;;;4880390;29;19931;-85
2023/05/19 07:31:14;;;;;;;;;;;;;;;;;;4873842;29;19928;-85
2023/05/19 07:33:39;;;;;;;;;;;;;;;;;;4898067;29;20048;-89
2023/05/19 07:36:05;;;;;;;;;;;;;;;;;;4889986;29;20018;-86
2023/05/19 07:38:33;;;;;;;;;;;;;;;;;;4890138;29;20467;-88
2023/05/19 07:40:58;;;;;;;;;;;;;;;;;;4890757;29;20490;-89
2023/05/19 07:43:23;;;;;;;;;;;;;;;;;;4876224;29;19971;-88
2023/05/19 07:45:49;;;;;;;;;;;;;;;;;;4887766;29;20014;-89
2023/05/19 07:48:17;;;;;;;;;;;;;;;;;;4887597;29;19928;-88
2023/05/19 07:50:43;;;;;;;;;;;;;;;;;;4889235;29;19939;-90
2023/05/19 07:53:08;;;;;;;;;;;;;;;;;;4884532;29;19923;-88
2023/05/19 07:55:33;;;;;;;;;;;;;;;;;;4888110;29;19950;-88
2023/05/19 07:57:59;;;;;;;;;;;;;;;;;;4878569;29;19928;-88
2023/05/19 08:00:24;;;;;;;;;;;;;;;;;;4894046;29;19987;-88
2023/05/19 08:02:50;;;;;;;;;;;;;;;;;;4890016;29;19979;-89
2023/05/19 08:05:15;;;;;;;;;;;;;;;;;;4883558;29;19982;-85
2023/05/19 08:07:40;;;;;;;;;;;;;;;;;;4889423;29;19928;-89
2023/05/19 08:10:06;;;;;;;;;;;;;;;;;;4888502;29;19994;-89
2023/05/19 08:12:31;;;;;;;;;;;;;;;;;;4890183;29;20050;-87
2023/05/19 08:14:56;;;;;;;;;;;;;;;;;;4895904;29;20073;-89
2023/05/19 08:17:22;;;;;;;;;;;;;;;;;;4895445;29;19991;-88
2023/05/19 08:19:47;;;;;;;;;;;;;;;;;;4890728;29;20412;-88
2023/05/19 08:22:12;;;;;;;;;;;;;;;;;;4898147;29;19971;-86
2023/05/19 08:24:38;;;;;;;;;;;;;;;;;;4889305;29;20640;-88
2023/05/19 08:27:03;;;;;;;;;;;;;;;;;;4893774;29;19931;-87
2023/05/19 08:29:29;;;;;;;;;;;;;;;;;;4888642;29;19931;-88
2023/05/19 08:31:54;;;;;;;;;;;;;;;;;;4897098;29;19930;-89
2023/05/19 08:34:21;;;;;;;;;;;;;;;;;;4890782;29;20807;-87
2023/05/19 08:36:46;;;;;;;;;;;;;;;;;;4889989;29;19930;-87
2023/05/19 08:39:12;;;;;;;;;;;;;;;;;;4895513;29;19927;-87
2023/05/19 08:41:38;;;;;;;;;;;;;;;;;;4895361;29;19983;-88
2023/05/19 08:44:03;;;;;;;;;;;;;;;;;;4895212;29;19927;-87
2023/05/19 08:46:29;;;;;;;;;;;;;;;;;;4895885;29;19924;-88
2023/05/19 08:48:58;;;;;;;;;;;;;;;;;;4894698;29;20396;-88
2023/05/19 08:51:30;;;;;;;;;;;;;;;;;;4907431;29;19987;-87
2023/05/19 08:53:59;;;;;;;;;;;;;;;;;;4889583;29;19923;-87
2023/05/19 08:56:25;;;;;;;;;;;;;;;;;;4901045;29;19962;-87
2023/05/19 08:58:55;;;;;;;;;;;;;;;;;;4898974;29;19924;-86
2023/05/19 09:01:25;;;;;;;;;;;;;;;;;;4899184;29;19939;-88
2023/05/19 09:03:52;;;;;;;;;;;;;;;;;;4896594;29;20311;-86
2023/05/19 09:06:17;;;;;;;;;;;;;;;;;;4888507;29;20010;-89
2023/05/19 09:08:43;;;;;;;;;;;;;;;;;;4886734;29;19954;-89
2023/05/19 09:11:09;;;;;;;;;;;;;;;;;;4895716;29;19998;-87
2023/05/19 09:13:38;;;;;;;;;;;;;;;;;;4903013;29;19927;-88
2023/05/19 09:16:09;;;;;;;;;;;;;;;;;;4892032;29;19972;-87
2023/05/19 09:18:37;;;;;;;;;;;;;;;;;;4900315;29;19962;-89
2023/05/19 09:21:03;;;;;;;;;;;;;;;;;;4911956;29;19923;-88
2023/05/19 09:23:30;;;;;;;;;;;;;;;;;;4912689;29;19927;-88
2023/05/19 09:25:56;;;;;;;;;;;;;;;;;;4909686;29;20352;-90
2023/05/19 09:28:36;;;;;;;;;;;;;;;;;;4909703;29;19947;-89
2023/05/19 09:31:03;;;;;;;;;;;;;;;;;;4891178;29;19924;-89
2023/05/19 09:33:29;;;;;;;;;;;;;;;;;;4890524;29;20015;-84
2023/05/19 09:36:01;;;;;;;;;;;;;;;;;;4895485;29;19978;-85
2023/05/19 09:38:27;;;;;;;;;;;;;;;;;;4888957;29;19927;-87
2023/05/19 09:41:01;;;;;;;;;;;;;;;;;;4892001;29;19972;-85
2023/05/19 09:43:27;;;;;;;;;;;;;;;;;;4887374;29;19963;-86
2023/05/19 09:46:05;;;;;;;;;;;;;;;;;;4883113;29;19931;-84
2023/05/19 09:48:31;;;;;;;;;;;;;;;;;;4886043;29;19928;-86
2023/05/19 09:51:01;;;;;;;;;;;;;;;;;;4882257;29;19927;-86
2023/05/19 09:53:46;;;;;;;;;;;;;;;;;;4897560;29;19927;-88
2023/05/19 09:56:13;;;;;;;;;;;;;;;;;;4879818;29;19949;-87
2023/05/19 09:58:45;;;;;;;;;;;;;;;;;;4882392;29;20387;-85
2023/05/19 10:01:11;;;;;;;;;;;;;;;;;;4904634;29;19930;-83
2023/05/19 10:03:40;;;;;;;;;;;;;;;;;;4913521;29;19961;-84
2023/05/19 10:09:43;;;;;;;;;;;;;;;;;;4884978;23;19946;-84
2023/05/19 10:12:09;;;;;;;;;;;;;;;;;;4907134;29;19931;-84
2023/05/19 10:14:35;;;;;;;;;;;;;;;;;;4913479;29;19930;-83
2023/05/19 10:17:00;;;;;;;;;;;;;;;;;;4887106;29;20292;-83
2023/05/19 10:19:26;;;;;;;;;;;;;;;;;;4911484;29;20014;-82
2023/05/19 10:21:52;;;;;;;;;;;;;;;;;;4880042;29;19927;-82
2023/05/19 10:24:18;;;;;;;;;;;;;;;;;;4885054;29;20415;-83
2023/05/19 10:26:51;;;;;;;;;;;;;;;;;;4884076;29;19919;-83
2023/05/19 10:29:20;;;;;;;;;;;;;;;;;;4895850;29;19939;-84
2023/05/19 10:31:46;;;;;;;;;;;;;;;;;;4897108;29;19931;-81
2023/05/19 10:34:17;;;;;;;;;;;;;;;;;;4886919;29;20011;-83
2023/05/19 10:37:06;;;;;;;;;;;;;;;;;;4878388;29;19966;-81
2023/05/19 10:39:35;;;;;;;;;;;;;;;;;;4879165;29;20393;-83
2023/05/19 10:42:00;;;;;;;;;;;;;;;;;;4878563;29;19924;-82
2023/05/19 10:44:44;;;;;;;;;;;;;;;;;;4888501;29;19923;-83
2023/05/19 10:47:10;;;;;;;;;;;;;;;;;;4878369;29;19930;-84
2023/05/19 10:49:36;;;;;;;;;;;;;;;;;;4888746;29;20443;-84
2023/05/19 10:52:01;;;;;;;;;;;;;;;;;;4896974;29;19919;-83
2023/05/19 10:54:39;;;;;;;;;;;;;;;;;;4896375;29;19928;-84
2023/05/19 10:57:05;;;;;;;;;;;;;;;;;;4881426;29;20288;-84
2023/05/19 10:59:35;;;;;;;;;;;;;;;;;;4893903;29;20398;-83
2023/05/19 11:02:04;;;;;;;;;;;;;;;;;;4909057;29;19929;-82
2023/05/19 11:04:46;;;;;;;;;;;;;;;;;;4896612;29;19926;-84
2023/05/19 11:07:23;;;;;;;;;;;;;;;;;;4896400;29;19923;-84
2023/05/19 11:09:52;;;;;;;;;;;;;;;;;;4896595;29;19983;-83
2023/05/19 11:12:21;;;;;;;;;;;;;;;;;;4886276;29;19924;-84
2023/05/19 11:14:46;;;;;;;;;;;;;;;;;;4892886;29;20372;-82
2023/05/19 11:17:13;;;;;;;;;;;;;;;;;;4885318;29;19923;-82
2023/05/19 11:19:40;;;;;;;;;;;;;;;;;;4878399;29;19928;-83
2023/05/19 11:22:12;;;;;;;;;;;;;;;;;;4877561;29;19924;-84
2023/05/19 11:24:45;;;;;;;;;;;;;;;;;;4878698;29;19995;-84
2023/05/19 11:27:22;;;;;;;;;;;;;;;;;;4888612;29;20312;-83
2023/05/19 11:29:47;;;;;;;;;;;;;;;;;;4895779;29;20375;-84
2023/05/19 11:32:13;;;;;;;;;;;;;;;;;;4900922;29;20002;-85
2023/05/19 11:34:38;;;;;;;;;;;;;;;;;;4897788;29;19931;-84
2023/05/19 11:37:05;;;;;;;;;;;;;;;;;;4887213;29;19919;-85
2023/05/19 11:39:31;;;;;;;;;;;;;;;;;;4888835;29;19971;-86
2023/05/19 11:41:56;;;;;;;;;;;;;;;;;;4883280;29;19931;-85
2023/05/19 11:44:21;;;;;;;;;;;;;;;;;;4885977;29;20399;-84
2023/05/19 11:46:47;;;;;;;;;;;;;;;;;;4878695;29;20392;-85
2023/05/19 11:49:13;;;;;;;;;;;;;;;;;;4881413;29;20313;-83
2023/05/19 11:51:41;;;;;;;;;;;;;;;;;;4889428;29;19907;-82
2023/05/19 11:54:07;;;;;;;;;;;;;;;;;;4883533;29;19931;-82
2023/05/19 11:56:32;;;;;;;;;;;;;;;;;;4886938;29;19958;-84
2023/05/19 11:58:58;;;;;;;;;;;;;;;;;;4886951;29;19946;-86
2023/05/19 12:01:26;;;;;;;;;;;;;;;;;;4887519;29;19927;-85
2023/05/19 12:03:51;;;;;;;;;;;;;;;;;;4890686;29;19946;-83
2023/05/19 12:06:16;;;;;;;;;;;;;;;;;;4887320;29;20473;-84
2023/05/19 12:08:42;;;;;;;;;;;;;;;;;;4887599;29;19931;-83
2023/05/19 12:11:07;;;;;;;;;;;;;;;;;;4884359;29;20481;-85
2023/05/19 12:13:32;;;;;;;;;;;;;;;;;;4887702;29;19923;-84
2023/05/19 12:15:58;;;;;;;;;;;;;;;;;;4882075;29;19962;-85
2023/05/19 12:18:26;;;;;;;;;;;;;;;;;;4883989;29;20399;-84
2023/05/19 12:20:51;;;;;;;;;;;;;;;;;;4886666;29;20010;-85
2023/05/19 12:23:17;;;;;;;;;;;;;;;;;;4886911;29;19935;-86
2023/05/19 12:25:42;;;;;;;;;;;;;;;;;;4888677;29;19934;-83
2023/05/19 12:28:08;;;;;;;;;;;;;;;;;;4888452;29;19955;-85
2023/05/19 12:30:33;;;;;;;;;;;;;;;;;;4888143;29;19928;-86
2023/05/19 12:33:00;;;;;;;;;;;;;;;;;;4899078;29;19927;-86
2023/05/19 12:35:28;;;;;;;;;;;;;;;;;;4882107;29;20387;-85
2023/05/19 12:37:53;;;;;;;;;;;;;;;;;;4889416;29;20042;-84
2023/05/19 12:40:19;;;;;;;;;;;;;;;;;;4888836;29;19930;-86
2023/05/19 12:42:44;;;;;;;;;;;;;;;;;;4881278;29;19983;-85
2023/05/19 12:45:09;;;;;;;;;;;;;;;;;;4888531;29;19923;-84
2023/05/19 12:47:35;;;;;;;;;;;;;;;;;;4888640;29;19927;-87
2023/05/19 12:50:09;;;;;;;;;;;;;;;;;;4883432;29;19936;-84
2023/05/19 12:52:42;;;;;;;;;;;;;;;;;;4878485;29;19935;-82
2023/05/19 12:55:07;;;;;;;;;;;;;;;;;;4901010;29;20604;-90
2023/05/19 12:57:36;;;;;;;;;;;;;;;;;;4895351;29;19923;-86
2023/05/19 13:00:06;;;;;;;;;;;;;;;;;;4881448;29;19974;-84
2023/05/19 13:02:32;;;;;;;;;;;;;;;;;;4918004;29;20526;-84
2023/05/19 13:04:58;;;;;;;;;;;;;;;;;;4916999;29;19930;-87
2023/05/19 13:07:24;;;;;;;;;;;;;;;;;;4917350;29;20312;-87
2023/05/19 13:09:49;;;;;;;;;;;;;;;;;;4914863;29;20410;-85
2023/05/19 13:12:14;;;;;;;;;;;;;;;;;;4891421;29;19923;-86
2023/05/19 13:14:41;;;;;;;;;;;;;;;;;;4880586;29;20316;-86
2023/05/19 13:17:06;;;;;;;;;;;;;;;;;;4879636;29;19928;-86
2023/05/19 13:19:31;;;;;;;;;;;;;;;;;;4879946;29;19946;-86
2023/05/19 13:21:57;;;;;;;;;;;;;;;;;;4884318;29;19924;-87
2023/05/19 13:24:22;;;;;;;;;;;;;;;;;;4904356;29;19930;-87
2023/05/19 13:26:48;;;;;;;;;;;;;;;;;;4899411;29;19951;-84
2023/05/19 13:29:13;;;;;;;;;;;;;;;;;;4881232;29;19928;-86
2023/05/19 13:31:38;;;;;;;;;;;;;;;;;;4897363;29;19927;-87
2023/05/19 13:34:04;;;;;;;;;;;;;;;;;;4915940;29;19927;-85
2023/05/19 13:36:29;;;;;;;;;;;;;;;;;;4917610;29;19927;-86
2023/05/19 13:38:54;;;;;;;;;;;;;;;;;;4908621;29;19931;-85
2023/05/19 13:41:24;;;;;;;;;;;;;;;;;;4882385;29;20540;-86
2023/05/19 13:43:50;;;;;;;;;;;;;;;;;;4884308;29;19919;-87
2023/05/19 13:46:16;;;;;;;;;;;;;;;;;;4885898;29;19933;-86
2023/05/19 13:48:42;;;;;;;;;;;;;;;;;;4884454;29;19927;-84
2023/05/19 13:51:07;;;;;;;;;;;;;;;;;;4892358;29;19943;-85
2023/05/19 13:53:33;;;;;;;;;;;;;;;;;;4888040;29;20400;-86
2023/05/19 13:56:01;;;;;;;;;;;;;;;;;;4889984;29;19923;-87
2023/05/19 13:58:28;;;;;;;;;;;;;;;;;;4879314;29;20234;-86
2023/05/19 14:00:55;;;;;;;;;;;;;;;;;;4888412;29;19930;-86
2023/05/19 14:03:20;;;;;;;;;;;;;;;;;;4897910;29;19928;-86
2023/05/19 14:05:49;;;;;;;;;;;;;;;;;;4893553;29;20369;-86
2023/05/19 14:08:15;;;;;;;;;;;;;;;;;;4889854;29;19924;-86
2023/05/19 14:10:41;;;;;;;;;;;;;;;;;;4898770;29;20570;-83
2023/05/19 14:13:09;;;;;;;;;;;;;;;;;;4906757;29;19923;-89
2023/05/19 14:15:36;;;;;;;;;;;;;;;;;;4915335;29;19974;-86
2023/05/19 14:18:01;;;;;;;;;;;;;;;;;;4902981;29;19924;-88
2023/05/19 14:20:27;;;;;;;;;;;;;;;;;;4881420;29;19980;-86
2023/05/19 14:22:53;;;;;;;;;;;;;;;;;;4880945;29;19935;-86
2023/05/19 14:25:18;;;;;;;;;;;;;;;;;;4883011;29;19924;-87
2023/05/19 14:27:44;;;;;;;;;;;;;;;;;;4880685;29;20404;-83
2023/05/19 14:30:09;;;;;;;;;;;;;;;;;;4881189;29;19932;-86
2023/05/19 14:32:34;;;;;;;;;;;;;;;;;;4885101;29;20407;-87
2023/05/19 14:35:00;;;;;;;;;;;;;;;;;;4883290;29;20037;-83
2023/05/19 14:37:27;;;;;;;;;;;;;;;;;;4881434;29;19983;-86
2023/05/19 14:39:53;;;;;;;;;;;;;;;;;;4881912;29;19927;-89
2023/05/19 14:42:18;;;;;;;;;;;;;;;;;;4881398;29;19938;-86
2023/05/19 14:44:44;;;;;;;;;;;;;;;;;;4883760;29;20404;-86
2023/05/19 14:47:09;;;;;;;;;;;;;;;;;;4882301;29;19931;-88
2023/05/19 14:49:35;;;;;;;;;;;;;;;;;;4883295;29;19931;-84
2023/05/19 14:52:00;;;;;;;;;;;;;;;;;;4896707;29;19920;-89
2023/05/19 14:54:25;;;;;;;;;;;;;;;;;;4892759;29;20738;-89
2023/05/19 14:56:51;;;;;;;;;;;;;;;;;;4881257;29;20003;-88
2023/05/19 14:59:16;;;;;;;;;;;;;;;;;;4881523;29;19928;-87
2023/05/19 15:01:41;;;;;;;;;;;;;;;;;;4882676;29;19927;-88
2023/05/19 15:04:06;;;;;;;;;;;;;;;;;;4881722;29;20339;-87
2023/05/19 15:06:32;;;;;;;;;;;;;;;;;;4882797;29;19923;-88
2023/05/19 15:08:57;;;;;;;;;;;;;;;;;;4883472;29;20300;-88
2023/05/19 15:11:22;;;;;;;;;;;;;;;;;;4894713;29;19955;-86
2023/05/19 15:13:47;;;;;;;;;;;;;;;;;;4885123;29;20392;-87
2023/05/19 15:16:13;;;;;;;;;;;;;;;;;;4897023;29;19937;-89
2023/05/19 15:18:38;;;;;;;;;;;;;;;;;;4894958;29;19924;-89
2023/05/19 15:21:03;;;;;;;;;;;;;;;;;;4896566;29;20291;-85
2023/05/19 15:23:29;;;;;;;;;;;;;;;;;;4896698;29;19923;-88
2023/05/19 15:25:55;;;;;;;;;;;;;;;;;;4896620;29;20014;-88
2023/05/19 15:28:20;;;;;;;;;;;;;;;;;;4896162;29;20014;-88
2023/05/19 15:30:45;;;;;;;;;;;;;;;;;;4896577;29;19927;-89
2023/05/19 15:33:11;;;;;;;;;;;;;;;;;;4910261;29;20792;-86
2023/05/19 15:35:36;;;;;;;;;;;;;;;;;;4915725;29;20308;-89
2023/05/19 15:38:05;;;;;;;;;;;;;;;;;;4906624;29;19923;-87
2023/05/19 15:40:30;;;;;;;;;;;;;;;;;;4880374;29;19923;-89
2023/05/19 15:42:55;;;;;;;;;;;;;;;;;;4880199;29;19934;-85
2023/05/19 15:45:21;;;;;;;;;;;;;;;;;;4888611;29;20024;-86
2023/05/19 15:47:47;;;;;;;;;;;;;;;;;;4880342;29;19992;-86
2023/05/19 15:50:12;;;;;;;;;;;;;;;;;;4881821;29;19924;-86
2023/05/19 15:52:37;;;;;;;;;;;;;;;;;;4883613;29;19931;-87
2023/05/19 15:55:03;;;;;;;;;;;;;;;;;;4881014;29;19982;-87
2023/05/19 15:57:28;;;;;;;;;;;;;;;;;;4880319;29;19939;-84
2023/05/19 15:59:53;;;;;;;;;;;;;;;;;;4879412;29;19927;-86
2023/05/19 16:02:18;;;;;;;;;;;;;;;;;;4880769;29;19924;-86
2023/05/19 16:04:44;;;;;;;;;;;;;;;;;;4881046;29;19923;-87
2023/05/19 16:07:10;;;;;;;;;;;;;;;;;;4880637;29;19923;-87
2023/05/19 16:09:35;;;;;;;;;;;;;;;;;;4880020;29;19982;-88
2023/05/19 16:12:00;;;;;;;;;;;;;;;;;;4878998;29;19955;-85
2023/05/19 16:14:29;;;;;;;;;;;;;;;;;;4878889;29;19934;-87
2023/05/19 16:16:55;;;;;;;;;;;;;;;;;;4881104;29;19923;-86
2023/05/19 16:19:22;;;;;;;;;;;;;;;;;;4881471;29;19954;-88
2023/05/19 16:21:47;;;;;;;;;;;;;;;;;;4880904;29;19939;-87
2023/05/19 16:24:12;;;;;;;;;;;;;;;;;;4881612;29;20113;-83
2023/05/19 16:26:38;;;;;;;;;;;;;;;;;;4881585;29;19931;-87
2023/05/19 16:29:03;;;;;;;;;;;;;;;;;;4881575;29;19938;-86
2023/05/19 16:31:28;;;;;;;;;;;;;;;;;;4880687;29;21832;-87
2023/05/19 16:33:54;;;;;;;;;;;;;;;;;;4880090;29;19924;-86
2023/05/19 16:36:21;;;;;;;;;;;;;;;;;;4882873;29;20396;-87
2023/05/19 16:38:46;;;;;;;;;;;;;;;;;;4885753;29;20096;-88
2023/05/19 16:41:11;;;;;;;;;;;;;;;;;;4885902;29;20065;-87
2023/05/19 16:43:37;;;;;;;;;;;;;;;;;;4885326;29;19924;-88
2023/05/19 16:46:03;;;;;;;;;;;;;;;;;;4886342;29;19924;-86
2023/05/19 16:48:29;;;;;;;;;;;;;;;;;;4887528;29;19942;-88
2023/05/19 16:50:54;;;;;;;;;;;;;;;;;;4891716;29;19931;-88
2023/05/19 16:53:19;;;;;;;;;;;;;;;;;;4894513;29;19938;-89
2023/05/19 16:55:45;;;;;;;;;;;;;;;;;;4895879;29;20339;-88
2023/05/19 16:58:10;;;;;;;;;;;;;;;;;;4900409;29;19944;-88
2023/05/19 17:00:35;;;;;;;;;;;;;;;;;;4901987;29;20015;-88
2023/05/19 17:03:01;;;;;;;;;;;;;;;;;;4889998;29;20411;-87
2023/05/19 17:05:26;;;;;;;;;;;;;;;;;;4888435;29;19923;-88
2023/05/19 17:07:52;;;;;;;;;;;;;;;;;;4892277;29;19931;-88
2023/05/19 17:10:17;;;;;;;;;;;;;;;;;;4888580;29;19930;-89
2023/05/19 17:12:42;;;;;;;;;;;;;;;;;;4893898;29;19923;-90
2023/05/19 17:15:08;;;;;;;;;;;;;;;;;;4891793;29;19928;-89
2023/05/19 17:17:33;;;;;;;;;;;;;;;;;;4890373;29;20379;-88
2023/05/19 17:19:58;;;;;;;;;;;;;;;;;;4899310;29;19973;-89
2023/05/19 17:22:24;;;;;;;;;;;;;;;;;;4898775;29;19931;-82
2023/05/19 17:24:49;;;;;;;;;;;;;;;;;;4899050;29;19923;-82
2023/05/19 17:27:14;;;;;;;;;;;;;;;;;;4898294;29;19978;-83
2023/05/19 17:29:39;;;;;;;;;;;;;;;;;;4892904;29;19934;-83
2023/05/19 17:32:05;;;;;;;;;;;;;;;;;;4900579;29;19923;-81
2023/05/19 17:34:31;;;;;;;;;;;;;;;;;;4917505;29;19927;-83
2023/05/19 17:36:56;;;;;;;;;;;;;;;;;;4887708;29;20422;-84
2023/05/19 17:39:21;;;;;;;;;;;;;;;;;;4879001;29;19924;-84
2023/05/19 17:41:46;;;;;;;;;;;;;;;;;;4879601;29;20289;-81
2023/05/19 17:44:12;;;;;;;;;;;;;;;;;;4889382;29;20038;-82
2023/05/19 17:46:38;;;;;;;;;;;;;;;;;;4878647;29;20014;-83
2023/05/19 17:49:03;;;;;;;;;;;;;;;;;;4886690;29;20017;-83
2023/05/19 17:51:29;;;;;;;;;;;;;;;;;;4887185;29;20007;-82
2023/05/19 17:53:54;;;;;;;;;;;;;;;;;;4893098;29;19923;-82
2023/05/19 17:56:21;;;;;;;;;;;;;;;;;;4885921;29;19924;-83
2023/05/19 17:58:48;;;;;;;;;;;;;;;;;;4910433;29;20323;-81
2023/05/19 18:01:13;;;;;;;;;;;;;;;;;;4895873;29;19924;-83
2023/05/19 18:03:38;;;;;;;;;;;;;;;;;;4898123;29;19930;-82
2023/05/19 18:06:04;;;;;;;;;;;;;;;;;;4897831;29;20460;-80
2023/05/19 18:08:29;;;;;;;;;;;;;;;;;;4897861;29;19931;-82
2023/05/19 18:10:56;;;;;;;;;;;;;;;;;;4883968;29;19954;-82
2023/05/19 18:13:22;;;;;;;;;;;;;;;;;;4890744;29;19928;-81
2023/05/19 18:15:47;;;;;;;;;;;;;;;;;;4888560;29;20008;-81
2023/05/19 18:18:13;;;;;;;;;;;;;;;;;;4887169;29;19931;-82
2023/05/19 18:20:40;;;;;;;;;;;;;;;;;;4881695;29;19962;-82
2023/05/19 18:23:05;;;;;;;;;;;;;;;;;;4874464;29;19924;-83
2023/05/19 18:25:30;;;;;;;;;;;;;;;;;;4877376;29;19927;-82
2023/05/19 18:27:56;;;;;;;;;;;;;;;;;;4872284;29;19999;-82
2023/05/19 18:30:21;;;;;;;;;;;;;;;;;;4880485;29;19930;-82
2023/05/19 18:32:47;;;;;;;;;;;;;;;;;;4895463;29;19990;-81
2023/05/19 18:35:12;;;;;;;;;;;;;;;;;;4890676;29;19934;-82
2023/05/19 18:37:37;;;;;;;;;;;;;;;;;;4886282;29;19986;-80
2023/05/19 18:40:03;;;;;;;;;;;;;;;;;;4885469;29;20121;-83
2023/05/19 18:42:28;;;;;;;;;;;;;;;;;;4890608;29;19923;-81
2023/05/19 18:44:53;;;;;;;;;;;;;;;;;;4886554;29;19926;-81
2023/05/19 18:47:18;;;;;;;;;;;;;;;;;;4887933;29;19927;-82
2023/05/19 18:49:44;;;;;;;;;;;;;;;;;;4888149;29;19934;-81
2023/05/19 18:52:09;;;;;;;;;;;;;;;;;;4882597;29;19935;-83
2023/05/19 18:54:36;;;;;;;;;;;;;;;;;;4875090;29;19927;-84
2023/05/19 18:57:02;;;;;;;;;;;;;;;;;;4881937;29;19923;-84
2023/05/19 18:59:27;;;;;;;;;;;;;;;;;;4890103;29;19931;-83
2023/05/19 19:01:53;;;;;;;;;;;;;;;;;;4883448;29;19963;-83
2023/05/19 19:04:18;;;;;;;;;;;;;;;;;;4877690;29;20443;-83
2023/05/19 19:06:44;;;;;;;;;;;;;;;;;;4887719;29;19938;-84
2023/05/19 19:09:09;;;;;;;;;;;;;;;;;;4876748;29;19927;-84
2023/05/19 19:11:34;;;;;;;;;;;;;;;;;;4887666;29;20471;-83
2023/05/19 19:14:00;;;;;;;;;;;;;;;;;;4880961;29;20006;-82
2023/05/19 19:16:25;;;;;;;;;;;;;;;;;;4886821;29;19927;-81
2023/05/19 19:18:51;;;;;;;;;;;;;;;;;;4884208;29;19931;-83
2023/05/19 19:21:18;;;;;;;;;;;;;;;;;;4880419;29;19932;-82
2023/05/19 19:23:43;;;;;;;;;;;;;;;;;;4876916;29;19927;-83
2023/05/19 19:26:09;;;;;;;;;;;;;;;;;;4880709;29;19954;-81
2023/05/19 19:28:35;;;;;;;;;;;;;;;;;;4888833;29;20463;-85
2023/05/19 19:31:00;;;;;;;;;;;;;;;;;;4884907;29;20404;-85
2023/05/19 19:33:26;;;;;;;;;;;;;;;;;;4881352;29;19923;-86
2023/05/19 19:35:51;;;;;;;;;;;;;;;;;;4887134;29;20375;-84
2023/05/19 19:38:16;;;;;;;;;;;;;;;;;;4888153;29;20697;-86
2023/05/19 19:40:42;;;;;;;;;;;;;;;;;;4895434;29;19934;-86
2023/05/19 19:43:07;;;;;;;;;;;;;;;;;;4886858;29;19927;-85
2023/05/19 19:45:33;;;;;;;;;;;;;;;;;;4879872;29;19923;-86
2023/05/19 19:48:05;;;;;;;;;;;;;;;;;;4881439;29;20018;-84
2023/05/19 19:50:31;;;;;;;;;;;;;;;;;;4880348;29;19923;-85
2023/05/19 19:52:56;;;;;;;;;;;;;;;;;;4883950;29;20026;-86
2023/05/19 19:55:22;;;;;;;;;;;;;;;;;;4888532;29;19942;-85
2023/05/19 19:57:48;;;;;;;;;;;;;;;;;;4888900;29;19923;-86
2023/05/19 20:00:13;;;;;;;;;;;;;;;;;;4886098;29;19934;-85
2023/05/19 20:02:39;;;;;;;;;;;;;;;;;;4885794;29;19931;-85
2023/05/19 20:05:05;;;;;;;;;;;;;;;;;;4884167;29;19927;-85
2023/05/19 20:07:31;;;;;;;;;;;;;;;;;;4884918;29;19935;-85
2023/05/19 20:09:56;;;;;;;;;;;;;;;;;;4876434;29;19975;-86
2023/05/19 20:12:25;;;;;;;;;;;;;;;;;;4886976;29;19956;-87
2023/05/19 20:14:53;;;;;;;;;;;;;;;;;;4886275;29;19927;-85
2023/05/19 20:17:18;;;;;;;;;;;;;;;;;;4877187;29;19992;-86
2023/05/19 20:19:44;;;;;;;;;;;;;;;;;;4884316;29;19931;-83
2023/05/19 20:22:09;;;;;;;;;;;;;;;;;;4873815;29;20285;-85
2023/05/19 20:24:34;;;;;;;;;;;;;;;;;;4884696;29;20383;-85
2023/05/19 20:27:00;;;;;;;;;;;;;;;;;;4881891;29;20319;-85
2023/05/19 20:29:26;;;;;;;;;;;;;;;;;;4888259;29;19934;-88
2023/05/19 20:31:51;;;;;;;;;;;;;;;;;;4888550;29;19927;-86
2023/05/19 20:34:16;;;;;;;;;;;;;;;;;;4885027;29;19934;-86
2023/05/19 20:36:42;;;;;;;;;;;;;;;;;;4884459;29;20651;-84
2023/05/19 20:39:08;;;;;;;;;;;;;;;;;;4881254;29;19974;-85
2023/05/19 20:41:34;;;;;;;;;;;;;;;;;;4879883;29;19928;-86
2023/05/19 20:44:00;;;;;;;;;;;;;;;;;;4886230;29;19974;-85
2023/05/19 20:46:25;;;;;;;;;;;;;;;;;;4888797;29;20324;-86
2023/05/19 20:48:50;;;;;;;;;;;;;;;;;;4884405;29;19927;-85
2023/05/19 20:51:27;;;;;;;;;;;;;;;;;;4883047;29;19954;-85
2023/05/19 20:53:53;;;;;;;;;;;;;;;;;;4890233;23;19934;-86
2023/05/19 20:56:18;;;;;;;;;;;;;;;;;;4900273;29;19923;-85
2023/05/19 20:58:43;;;;;;;;;;;;;;;;;;4896898;29;19923;-87
2023/05/19 21:01:09;;;;;;;;;;;;;;;;;;4899159;29;19934;-86
2023/05/19 21:03:34;;;;;;;;;;;;;;;;;;4907036;29;20312;-85
2023/05/19 21:06:00;;;;;;;;;;;;;;;;;;4907845;29;19927;-86
2023/05/19 21:08:25;;;;;;;;;;;;;;;;;;4906273;29;20030;-86
2023/05/19 21:10:50;;;;;;;;;;;;;;;;;;4893752;29;20310;-86
2023/05/19 21:13:18;;;;;;;;;;;;;;;;;;4900750;29;19924;-85
2023/05/19 21:15:44;;;;;;;;;;;;;;;;;;4915207;29;19927;-85
2023/05/19 21:18:10;;;;;;;;;;;;;;;;;;4904975;29;20575;-84
2023/05/19 21:20:36;;;;;;;;;;;;;;;;;;4900828;29;19937;-85
2023/05/19 21:23:01;;;;;;;;;;;;;;;;;;4902578;29;19950;-85
2023/05/19 21:25:26;;;;;;;;;;;;;;;;;;4901764;29;20013;-85
2023/05/19 21:27:53;;;;;;;;;;;;;;;;;;4906658;29;20379;-85
2023/05/19 21:30:19;;;;;;;;;;;;;;;;;;4900370;29;19987;-86
2023/05/19 21:32:44;;;;;;;;;;;;;;;;;;4907368;29;20018;-88
2023/05/19 21:35:09;;;;;;;;;;;;;;;;;;4908642;29;19927;-85
2023/05/19 21:37:35;;;;;;;;;;;;;;;;;;4910765;29;19923;-86
2023/05/19 21:40:00;;;;;;;;;;;;;;;;;;4910767;29;19927;-85
2023/05/19 21:42:25;;;;;;;;;;;;;;;;;;4909740;29;19927;-88
2023/05/19 21:44:50;;;;;;;;;;;;;;;;;;4910641;29;19958;-85
2023/05/19 21:47:16;;;;;;;;;;;;;;;;;;4910252;29;20025;-86
2023/05/19 21:49:41;;;;;;;;;;;;;;;;;;4910250;29;19923;-86
2023/05/19 21:52:10;;;;;;;;;;;;;;;;;;4908950;29;19930;-86
2023/05/19 21:54:35;;;;;;;;;;;;;;;;;;4910300;29;19964;-86
2023/05/19 21:57:01;;;;;;;;;;;;;;;;;;4909125;29;19966;-84
2023/05/19 21:59:26;;;;;;;;;;;;;;;;;;4900113;29;19934;-86
2023/05/19 22:01:53;;;;;;;;;;;;;;;;;;4908683;28;19934;-86
2023/05/19 22:04:20;;;;;;;;;;;;;;;;;;4905299;29;20404;-87
2023/05/19 22:06:45;;;;;;;;;;;;;;;;;;4905182;29;19923;-86
2023/05/19 22:09:10;;;;;;;;;;;;;;;;;;4903771;29;19931;-86
2023/05/19 22:11:36;;;;;;;;;;;;;;;;;;4906035;29;19931;-86
2023/05/19 22:14:06;;;;;;;;;;;;;;;;;;4898585;29;19926;-87
2023/05/19 22:16:32;;;;;;;;;;;;;;;;;;4911626;29;20455;-88
2023/05/19 22:18:57;;;;;;;;;;;;;;;;;;4917264;29;19923;-86
2023/05/19 22:21:22;;;;;;;;;;;;;;;;;;4915350;29;19930;-87
2023/05/19 22:23:48;;;;;;;;;;;;;;;;;;4916076;29;19922;-86
2023/05/19 22:26:13;;;;;;;;;;;;;;;;;;4912608;29;19926;-88
2023/05/19 22:28:39;;;;;;;;;;;;;;;;;;4894403;29;20044;-85
2023/05/19 22:31:05;;;;;;;;;;;;;;;;;;4909258;29;19923;-82
2023/05/19 22:33:30;;;;;;;;;;;;;;;;;;4932752;28;19923;-86
2023/05/19 22:35:55;;;;;;;;;;;;;;;;;;4935703;28;19923;-83
2023/05/19 22:38:20;;;;;;;;;;;;;;;;;;4935229;28;19949;-83
2023/05/19 22:40:46;;;;;;;;;;;;;;;;;;4935499;28;19923;-83
2023/05/19 22:43:11;;;;;;;;;;;;;;;;;;4934891;28;19931;-81